createdAt,value
2024-01-06T00:00:25.609Z,4.65
2024-01-06T00:05:27.762Z,5.47
2024-01-06T00:10:29.731Z,4.45
2024-01-06T00:15:31.752Z,4.95
2024-01-06T00:20:33.921Z,5.75
2024-01-06T00:25:35.808Z,4.35
2024-01-06T00:30:37.742Z,3.88
2024-01-06T00:35:40.034Z,3.50
2024-01-06T00:40:41.979Z,6.32
2024-01-06T00:45:44.274Z,5.53
2024-01-06T00:50:46.206Z,4.97
2024-01-06T00:55:48.071Z,5.47
2024-01-06T01:00:50.237Z,3.55
2024-01-06T01:05:52.205Z,3.97
2024-01-06T01:10:54.183Z,4.93
2024-01-06T01:15:56.599Z,1.42
2024-01-06T01:20:58.546Z,3.80
2024-01-06T01:26:00.505Z,3.50
2024-01-06T01:31:02.708Z,4.82
2024-01-06T01:36:04.827Z,3.22
2024-01-06T01:41:06.796Z,1.25
2024-01-06T01:46:08.792Z,5.43
2024-01-06T01:51:11.102Z,3.33
2024-01-06T01:56:13.536Z,4.13
2024-01-06T02:01:16.522Z,1.75
2024-01-06T02:06:18.479Z,3.33
2024-01-06T02:11:20.535Z,5.40
2024-01-06T02:16:22.523Z,4.85
2024-01-06T02:21:25.104Z,4.57
2024-01-06T02:26:27.060Z,4.80
2024-01-06T02:31:29.398Z,4.22
2024-01-06T02:36:31.442Z,3.95
2024-01-06T02:41:33.739Z,1.80
2024-01-06T02:46:35.657Z,4.70
2024-01-06T02:51:39.216Z,2.30
2024-01-06T02:56:41.279Z,3.92
2024-01-06T03:01:43.341Z,4.00
2024-01-06T03:06:47.300Z,4.00
2024-01-06T03:11:49.407Z,3.65
2024-01-06T03:16:51.656Z,4.10
2024-01-06T03:21:53.643Z,4.32
2024-01-06T03:26:55.586Z,5.28
2024-01-06T03:31:57.681Z,0.68
2024-01-06T03:36:59.552Z,4.43
2024-01-06T03:42:01.893Z,5.40
2024-01-06T03:47:03.867Z,4.35
2024-01-06T03:52:06.164Z,4.93
2024-01-06T03:57:08.306Z,3.53
2024-01-06T04:02:10.298Z,4.88
2024-01-06T04:07:12.244Z,3.72
2024-01-06T04:12:14.289Z,2.30
2024-01-06T04:17:16.205Z,2.63
2024-01-06T04:22:18.111Z,4.75
2024-01-06T04:27:20.251Z,3.05
2024-01-06T04:32:22.139Z,0.15
2024-01-06T04:37:24.073Z,0.75
2024-01-06T04:42:26.772Z,5.05
2024-01-06T04:47:29.128Z,3.25
2024-01-06T04:52:31.216Z,4.53
2024-01-06T04:57:33.114Z,5.97
2024-01-06T05:02:35.529Z,4.07
2024-01-06T05:07:37.388Z,5.18
2024-01-06T05:12:39.446Z,4.72
2024-01-06T05:17:41.524Z,6.85
2024-01-06T05:22:43.470Z,4.72
2024-01-06T05:27:45.364Z,5.55
2024-01-06T05:32:47.335Z,4.72
2024-01-06T05:37:49.322Z,6.35
2024-01-06T05:42:54.274Z,5.53
2024-01-06T05:47:56.306Z,5.63
2024-01-06T05:52:58.326Z,4.80
2024-01-06T05:58:00.541Z,3.17
2024-01-06T06:03:02.461Z,7.53
2024-01-06T06:08:04.721Z,5.63
2024-01-06T06:13:06.665Z,7.30
2024-01-06T06:18:08.672Z,7.40
2024-01-06T06:23:13.686Z,6.90
2024-01-06T06:28:15.790Z,5.22
2024-01-06T06:33:18.489Z,6.38
2024-01-06T06:38:20.519Z,7.00
2024-01-06T06:43:22.423Z,7.03
2024-01-06T06:48:24.474Z,7.45
2024-01-06T06:53:26.372Z,6.40
2024-01-06T06:58:28.352Z,5.65
2024-01-06T07:03:30.344Z,4.93
2024-01-06T07:08:32.465Z,5.55
2024-01-06T07:13:34.336Z,5.07
2024-01-06T07:18:36.345Z,2.83
2024-01-06T07:23:38.320Z,1.90
2024-01-06T07:28:40.940Z,4.32
2024-01-06T07:33:45.644Z,7.47
2024-01-06T07:38:47.637Z,4.93
2024-01-06T07:43:49.465Z,0.05
2024-01-06T07:48:51.526Z,4.80
2024-01-06T07:53:53.507Z,5.18
2024-01-06T07:58:55.614Z,2.80
2024-01-06T08:03:58.531Z,6.72
2024-01-06T08:09:00.750Z,3.47
2024-01-06T08:14:02.842Z,0.55
2024-01-06T08:19:04.776Z,4.38
2024-01-06T08:24:06.891Z,3.63
2024-01-06T08:29:08.968Z,3.03
2024-01-06T08:34:36.130Z,4.15
2024-01-06T08:39:38.121Z,4.75
2024-01-06T08:44:41.378Z,3.33
2024-01-06T08:49:43.576Z,6.05
2024-01-06T08:54:47.057Z,4.53
2024-01-06T08:59:48.972Z,2.00
2024-01-06T09:04:51.088Z,0.57
2024-01-06T09:09:53.131Z,1.48
2024-01-06T09:14:55.141Z,3.55
2024-01-06T09:19:57.120Z,3.35
2024-01-06T09:25:01.633Z,1.63
2024-01-06T09:30:03.968Z,1.73
2024-01-06T09:35:06.322Z,1.73
2024-01-06T09:40:17.405Z,1.73
2024-01-06T09:45:28.736Z,3.07
2024-01-06T09:50:31.677Z,2.70
2024-01-06T09:55:33.881Z,1.45
2024-01-06T10:00:35.915Z,2.25
2024-01-06T10:05:37.924Z,1.92
2024-01-06T10:10:39.870Z,2.38
2024-01-06T10:15:41.950Z,1.58
2024-01-06T10:20:46.667Z,0.65
2024-01-06T10:25:48.606Z,1.55
2024-01-06T10:30:55.007Z,0.90
2024-01-06T10:41:56.410Z,1.25
2024-01-06T10:46:59.872Z,0.85
2024-01-06T10:52:02.599Z,0.82
2024-01-06T10:57:05.996Z,4.30
2024-01-06T11:02:09.704Z,1.25
2024-01-06T11:07:12.690Z,0.13
2024-01-06T11:12:14.821Z,0.68
2024-01-06T11:17:55.539Z,0.25
2024-01-06T11:23:24.390Z,1.35
2024-01-06T11:28:26.659Z,0.70
2024-01-06T11:33:28.807Z,0.05
2024-01-06T11:38:38.636Z,0.15
2024-01-06T11:43:41.726Z,0.20
2024-01-06T11:48:52.045Z,0.38
2024-01-06T11:53:54.398Z,0.55
2024-01-06T11:58:57.302Z,0.43
2024-01-06T12:03:59.349Z,0.57
2024-01-06T12:09:08.400Z,0.75
2024-01-06T12:14:10.233Z,0.40
2024-01-06T12:19:12.356Z,1.10
2024-01-06T12:24:18.816Z,0.30
2024-01-06T12:29:20.943Z,0.47
2024-01-06T12:34:23.758Z,0.65
2024-01-06T12:39:29.394Z,0.38
2024-01-06T12:44:33.704Z,0.43
2024-01-06T12:49:39.169Z,0.00
2024-01-06T12:54:44.690Z,0.65
2024-01-06T12:59:48.498Z,0.08
2024-01-06T13:04:50.532Z,0.50
2024-01-06T13:09:52.809Z,0.43
2024-01-06T13:14:54.777Z,0.40
2024-01-06T13:19:57.523Z,0.43
2024-01-06T13:25:00.350Z,0.13
2024-01-06T13:30:02.347Z,0.60
2024-01-06T13:35:06.850Z,0.32
2024-01-06T13:40:10.613Z,0.17
2024-01-06T13:45:13.666Z,0.13
2024-01-06T13:50:18.121Z,0.00
2024-01-06T13:55:20.103Z,0.10
2024-01-06T14:00:22.212Z,0.55
2024-01-06T14:05:24.420Z,0.13
2024-01-06T14:10:27.732Z,0.47
2024-01-06T14:15:32.134Z,0.30
2024-01-06T14:20:38.991Z,0.10
2024-01-06T14:25:41.016Z,0.28
2024-01-06T14:30:43.035Z,0.47
2024-01-06T14:35:45.282Z,0.00
2024-01-06T14:40:47.224Z,0.30
2024-01-06T14:45:49.589Z,0.60
2024-01-06T14:50:52.310Z,0.00
2024-01-06T14:55:54.644Z,0.10
2024-01-06T15:00:57.287Z,0.20
2024-01-06T15:05:59.324Z,0.10
2024-01-06T15:11:01.388Z,0.05
2024-01-06T15:16:04.020Z,0.00
2024-01-06T15:21:06.668Z,0.30
2024-01-06T15:26:08.539Z,0.10
2024-01-06T15:31:10.690Z,0.30
2024-01-06T15:36:12.692Z,0.20
2024-01-06T15:41:15.766Z,0.25
2024-01-06T15:46:18.546Z,0.30
2024-01-06T15:51:24.368Z,0.10
2024-01-06T15:56:27.131Z,0.63
2024-01-06T16:01:31.838Z,0.10
2024-01-06T16:06:37.088Z,0.20
2024-01-06T16:11:46.957Z,0.30
2024-01-06T16:16:54.776Z,0.60
2024-01-06T16:22:11.271Z,0.43
2024-01-06T16:27:22.105Z,0.63
2024-01-06T16:32:29.718Z,0.32
2024-01-06T16:37:32.848Z,0.10
2024-01-06T16:42:34.861Z,0.32
2024-01-06T16:47:37.133Z,0.30
2024-01-06T16:52:41.154Z,0.10
2024-01-06T16:57:43.304Z,1.33
2024-01-06T17:02:45.214Z,0.45
2024-01-06T17:07:48.385Z,0.20
2024-01-06T17:12:50.481Z,0.70
2024-01-06T17:17:52.458Z,0.55
2024-01-06T17:22:54.901Z,0.30
2024-01-06T17:27:57.067Z,0.25
2024-01-06T17:32:59.059Z,0.30
2024-01-06T17:38:01.164Z,0.13
2024-01-06T17:43:03.225Z,0.43
2024-01-06T17:48:06.104Z,0.10
2024-01-06T17:53:08.040Z,0.00
2024-01-06T17:58:10.049Z,0.20
2024-01-06T18:03:12.159Z,0.10
2024-01-06T18:08:14.199Z,0.17
2024-01-06T18:13:16.151Z,0.52
2024-01-06T18:18:18.274Z,0.35
2024-01-06T18:23:20.341Z,0.17
2024-01-06T18:28:25.319Z,0.20
2024-01-06T18:33:27.934Z,0.20
2024-01-06T18:38:30.543Z,0.00
2024-01-06T18:43:33.675Z,0.30
2024-01-06T18:48:35.896Z,0.75
2024-01-06T18:53:40.486Z,0.30
2024-01-06T18:58:42.836Z,0.40
2024-01-06T19:03:44.989Z,0.20
2024-01-06T19:08:47.348Z,0.13
2024-01-06T19:13:49.292Z,1.10
2024-01-06T19:18:51.300Z,0.75
2024-01-06T19:23:53.227Z,0.60
2024-01-06T19:28:55.204Z,0.10
2024-01-06T19:33:57.277Z,0.10
2024-01-06T19:38:59.241Z,0.60
2024-01-06T19:44:02.626Z,0.75
2024-01-06T19:49:05.973Z,0.17
2024-01-06T19:54:10.816Z,0.40
2024-01-06T19:59:21.113Z,0.10
2024-01-06T20:04:23.098Z,0.25
2024-01-06T20:09:25.025Z,0.00
2024-01-06T20:14:26.959Z,0.10
2024-01-06T20:19:29.105Z,0.00
2024-01-06T20:24:31.520Z,0.08
2024-01-06T20:29:33.391Z,0.00
2024-01-06T20:34:35.446Z,0.15
2024-01-06T20:39:37.479Z,0.32
2024-01-06T20:44:39.413Z,0.15
2024-01-06T20:49:42.337Z,0.30
2024-01-06T20:54:44.319Z,0.00
2024-01-06T20:59:46.261Z,0.08
2024-01-06T21:04:50.553Z,0.00
2024-01-06T21:09:52.831Z,0.40
2024-01-06T21:14:56.195Z,0.00
2024-01-06T21:19:58.705Z,0.10
2024-01-06T21:25:01.052Z,0.00
2024-01-06T21:30:06.393Z,0.00
2024-01-06T21:35:09.049Z,0.10
2024-01-06T21:40:11.512Z,0.00
2024-01-06T21:45:13.603Z,0.15
2024-01-06T21:50:15.586Z,0.10
2024-01-06T21:55:18.570Z,0.57
2024-01-06T22:00:32.263Z,0.00
2024-01-06T22:05:34.235Z,0.10
2024-01-06T22:10:36.218Z,0.15
2024-01-06T22:15:38.091Z,0.30
2024-01-06T22:20:40.175Z,0.10
2024-01-06T22:25:42.192Z,0.20
2024-01-06T22:30:44.425Z,0.20
2024-01-06T22:35:46.507Z,0.30
2024-01-06T22:40:48.868Z,0.10
2024-01-06T22:45:50.778Z,0.20
2024-01-06T22:51:18.206Z,0.13
2024-01-06T22:56:20.131Z,0.30
2024-01-06T23:01:22.283Z,0.13
2024-01-06T23:06:24.953Z,0.20
2024-01-06T23:11:27.655Z,0.00
2024-01-06T23:16:29.645Z,0.40
2024-01-06T23:21:31.657Z,0.03
2024-01-06T23:26:33.671Z,0.08
2024-01-06T23:31:35.729Z,0.05
2024-01-06T23:36:37.701Z,0.00
2024-01-06T23:41:39.567Z,0.00
2024-01-06T23:46:42.724Z,0.32
2024-01-06T23:51:44.711Z,0.10
2024-01-06T23:56:46.720Z,0.30
